createdAt,value
2022-09-21T00:02:06.683Z,40.00
2022-09-21T00:04:36.243Z,39.75
2022-09-21T00:07:05.636Z,50.25
2022-09-21T00:09:35.693Z,53.75
2022-09-21T00:12:05.111Z,44.50
2022-09-21T00:14:34.698Z,46.25
2022-09-21T00:17:04.034Z,43.50
2022-09-21T00:19:33.408Z,40.75
2022-09-21T00:22:02.865Z,38.00
2022-09-21T00:24:32.176Z,44.00
2022-09-21T00:27:01.664Z,30.50
2022-09-21T00:29:31.031Z,30.75
2022-09-21T00:32:00.565Z,32.75
2022-09-21T00:34:29.996Z,36.00
2022-09-21T00:36:59.432Z,39.25
2022-09-21T00:39:29.671Z,29.75
2022-09-21T00:41:59.017Z,25.25
2022-09-21T00:44:28.480Z,34.00
2022-09-21T00:47:05.436Z,30.50
2022-09-21T00:49:35.958Z,29.50
2022-09-21T00:52:07.055Z,36.75
2022-09-21T00:54:40.428Z,28.50
2022-09-21T00:57:10.912Z,31.00
2022-09-21T00:59:42.574Z,31.00
2022-09-21T01:02:13.086Z,28.75
2022-09-21T01:04:42.475Z,28.00
2022-09-21T01:07:13.795Z,32.50
2022-09-21T01:09:46.103Z,40.00
2022-09-21T01:12:16.494Z,37.25
2022-09-21T01:15:03.856Z,42.00
2022-09-21T01:17:48.964Z,47.25
2022-09-21T01:20:30.642Z,39.00
2022-09-21T01:23:00.057Z,46.75
2022-09-21T01:25:39.176Z,47.00
2022-09-21T01:28:09.213Z,45.00
2022-09-21T01:30:39.989Z,50.75
2022-09-21T01:33:13.779Z,42.50
2022-09-21T01:35:47.079Z,50.25
2022-09-21T01:38:25.089Z,45.75
2022-09-21T01:41:02.758Z,47.25
2022-09-21T01:43:52.472Z,45.50
2022-09-21T01:46:23.176Z,48.50
2022-09-21T01:48:54.944Z,43.25
2022-09-21T01:51:27.529Z,42.25
2022-09-21T01:54:00.318Z,45.50
2022-09-21T01:56:32.864Z,45.25
2022-09-21T01:59:20.444Z,46.25
2022-09-21T02:02:09.987Z,38.50
2022-09-21T02:04:40.194Z,42.75
2022-09-21T02:07:10.038Z,41.25
2022-09-21T02:09:39.691Z,41.50
2022-09-21T02:12:09.785Z,42.00
2022-09-21T02:14:40.266Z,41.50
2022-09-21T02:17:27.460Z,40.25
2022-09-21T02:20:06.573Z,43.50
2022-09-21T02:22:37.360Z,41.50
2022-09-21T02:25:13.076Z,44.25
2022-09-21T02:27:45.552Z,42.75
2022-09-21T02:30:26.322Z,34.50
2022-09-21T02:33:02.977Z,46.75
2022-09-21T02:35:47.614Z,40.75
2022-09-21T02:38:27.939Z,41.50
2022-09-21T02:41:00.752Z,37.00
2022-09-21T02:43:36.571Z,34.75
2022-09-21T02:46:09.902Z,41.75
2022-09-21T02:48:48.690Z,44.00
2022-09-21T02:51:30.953Z,44.50
2022-09-21T02:54:03.821Z,39.00
2022-09-21T02:56:33.992Z,40.50
2022-09-21T02:59:05.879Z,35.75
2022-09-21T03:01:36.331Z,39.00
2022-09-21T03:04:05.744Z,44.75
2022-09-21T03:06:35.526Z,44.25
2022-09-21T03:09:04.954Z,41.25
2022-09-21T03:11:35.257Z,40.25
2022-09-21T03:14:10.004Z,36.00
2022-09-21T03:16:40.358Z,47.25
2022-09-21T03:19:10.394Z,43.25
2022-09-21T03:21:44.304Z,41.25
2022-09-21T03:24:14.595Z,39.00
2022-09-21T03:26:45.666Z,38.00
2022-09-21T03:29:15.374Z,43.75
2022-09-21T03:31:44.708Z,43.50
2022-09-21T03:34:15.393Z,38.50
2022-09-21T03:36:44.742Z,42.00
2022-09-21T03:39:14.058Z,46.50
2022-09-21T03:41:43.397Z,42.25
2022-09-21T03:44:12.724Z,45.00
2022-09-21T03:46:41.994Z,47.25
2022-09-21T03:49:11.393Z,44.00
2022-09-21T03:51:41.958Z,46.00
2022-09-21T03:54:11.735Z,42.00
2022-09-21T03:56:43.702Z,38.25
2022-09-21T03:59:14.370Z,47.50
2022-09-21T04:01:45.593Z,39.00
2022-09-21T04:04:14.980Z,43.00
2022-09-21T04:06:47.389Z,49.25
2022-09-21T04:09:18.151Z,44.25
2022-09-21T04:11:47.969Z,43.75
2022-09-21T04:14:17.359Z,41.75
2022-09-21T04:16:46.890Z,43.75
2022-09-21T04:19:16.381Z,47.75
2022-09-21T04:21:45.786Z,46.00
2022-09-21T04:24:15.236Z,45.75
2022-09-21T04:26:45.727Z,43.00
2022-09-21T04:29:15.651Z,42.25
2022-09-21T04:31:45.115Z,43.25
2022-09-21T04:34:15.088Z,48.50
2022-09-21T04:36:44.869Z,49.00
2022-09-21T04:39:14.275Z,42.25
2022-09-21T04:41:43.581Z,44.25
2022-09-21T04:44:12.998Z,44.25
2022-09-21T04:46:42.292Z,43.50
2022-09-21T04:49:12.532Z,47.75
2022-09-21T04:51:42.034Z,44.00
2022-09-21T04:54:12.044Z,48.25
2022-09-21T04:56:41.435Z,46.25
2022-09-21T04:59:11.610Z,43.00
2022-09-21T05:01:41.106Z,44.75
2022-09-21T05:04:10.593Z,45.50
2022-09-21T05:06:40.046Z,47.75
2022-09-21T05:09:28.364Z,47.50
2022-09-21T05:11:58.426Z,48.25
2022-09-21T05:14:27.763Z,49.25
2022-09-21T05:16:57.274Z,47.75
2022-09-21T05:19:26.707Z,44.25
2022-09-21T05:21:56.157Z,43.25
2022-09-21T05:24:25.854Z,44.00
2022-09-21T05:26:55.178Z,48.50
2022-09-21T05:29:24.908Z,43.00
2022-09-21T05:31:58.021Z,49.25
2022-09-21T05:34:38.571Z,46.25
2022-09-21T05:37:08.172Z,52.50
2022-09-21T05:39:38.117Z,43.00
2022-09-21T05:42:07.765Z,43.00
2022-09-21T05:44:37.757Z,51.00
2022-09-21T05:47:19.660Z,45.50
2022-09-21T05:49:49.001Z,45.50
2022-09-21T05:52:33.882Z,41.50
2022-09-21T05:55:24.317Z,41.75
2022-09-21T05:58:06.341Z,47.25
2022-09-21T06:00:56.062Z,44.25
2022-09-21T06:03:33.648Z,42.50
2022-09-21T06:06:03.952Z,42.50
2022-09-21T06:08:33.505Z,42.75
2022-09-21T06:11:03.027Z,41.25
2022-09-21T06:13:32.585Z,41.50
2022-09-21T06:16:05.011Z,44.75
2022-09-21T06:18:38.969Z,41.25
2022-09-21T06:21:09.481Z,36.25
2022-09-21T06:23:41.439Z,40.25
2022-09-21T06:26:21.175Z,35.25
2022-09-21T06:28:51.082Z,40.75
2022-09-21T06:31:20.513Z,33.50
2022-09-21T06:33:50.003Z,32.25
2022-09-21T06:36:19.521Z,31.50
2022-09-21T06:38:49.064Z,35.50
2022-09-21T06:41:21.198Z,28.50
2022-09-21T06:43:50.899Z,29.25
2022-09-21T06:46:20.334Z,32.50
2022-09-21T06:48:50.012Z,27.25
2022-09-21T06:51:19.373Z,32.75
2022-09-21T06:53:49.744Z,33.75
2022-09-21T06:56:19.164Z,23.75
2022-09-21T06:58:49.132Z,31.75
2022-09-21T07:01:18.636Z,34.75
2022-09-21T07:03:51.204Z,30.75
2022-09-21T07:06:21.790Z,27.00
2022-09-21T07:11:43.397Z,26.75
2022-09-21T07:14:12.903Z,26.25
2022-09-21T07:16:42.377Z,27.50
2022-09-21T07:19:12.189Z,28.00
2022-09-21T07:21:41.788Z,30.50
2022-09-21T07:24:12.478Z,37.25
2022-09-21T07:26:42.376Z,29.75
2022-09-21T07:29:14.238Z,32.00
2022-09-21T07:31:47.112Z,30.00
2022-09-21T07:34:16.489Z,29.75
2022-09-21T07:36:45.826Z,24.75
2022-09-21T07:39:15.345Z,48.50
2022-09-21T07:41:45.417Z,44.00
2022-09-21T07:44:15.796Z,43.50
2022-09-21T07:46:48.129Z,35.25
2022-09-21T07:49:17.843Z,46.25
2022-09-21T07:51:47.273Z,45.00
2022-09-21T07:54:19.407Z,60.50
2022-09-21T07:57:08.451Z,39.50
2022-09-21T07:59:37.884Z,38.50
2022-09-21T08:02:07.502Z,40.25
2022-09-21T08:04:36.892Z,43.75
2022-09-21T08:07:08.875Z,50.50
2022-09-21T08:09:38.592Z,40.25
2022-09-21T08:12:08.239Z,41.00
2022-09-21T08:14:37.914Z,36.75
2022-09-21T08:17:08.376Z,40.75
2022-09-21T08:19:37.833Z,40.25
2022-09-21T08:22:08.954Z,44.00
2022-09-21T08:24:38.992Z,36.00
2022-09-21T08:27:09.625Z,44.75
2022-09-21T08:29:39.101Z,46.00
2022-09-21T08:32:09.368Z,41.50
2022-09-21T08:34:39.655Z,45.25
2022-09-21T08:37:09.222Z,47.50
2022-09-21T08:39:39.076Z,43.25
2022-09-21T08:42:08.507Z,44.50
2022-09-21T08:45:11.475Z,46.00
2022-09-21T08:48:00.949Z,40.75
2022-09-21T08:50:42.334Z,43.50
2022-09-21T08:53:19.178Z,47.00
2022-09-21T08:55:50.843Z,40.00
2022-09-21T08:58:27.904Z,39.25
2022-09-21T09:00:57.311Z,40.00
2022-09-21T09:03:29.464Z,38.25
2022-09-21T09:06:14.883Z,39.25
2022-09-21T09:09:00.150Z,38.00
2022-09-21T09:11:47.415Z,45.75
2022-09-21T09:14:35.154Z,36.25
2022-09-21T09:17:04.666Z,43.25
2022-09-21T09:19:48.605Z,40.25
2022-09-21T09:22:22.367Z,41.50
2022-09-21T09:24:53.379Z,44.50
2022-09-21T09:27:44.153Z,46.00
2022-09-21T09:30:19.935Z,43.50
2022-09-21T09:33:08.354Z,47.25
2022-09-21T09:36:00.969Z,43.25
2022-09-21T09:38:41.474Z,41.25
2022-09-21T09:41:30.946Z,41.75
2022-09-21T09:44:00.457Z,46.75
2022-09-21T09:46:36.153Z,31.50
2022-09-21T09:49:05.684Z,39.25
2022-09-21T09:51:38.046Z,41.00
2022-09-21T09:54:10.274Z,38.00
2022-09-21T09:56:40.090Z,42.25
2022-09-21T09:59:16.498Z,42.50
2022-09-21T10:01:50.554Z,38.50
2022-09-21T10:04:20.282Z,42.25
2022-09-21T10:06:49.741Z,46.50
2022-09-21T10:09:21.346Z,41.75
2022-09-21T10:11:51.199Z,42.25
2022-09-21T10:14:25.774Z,34.25
2022-09-21T10:16:57.675Z,39.25
2022-09-21T10:19:28.935Z,33.50
2022-09-21T10:22:00.167Z,40.00
2022-09-21T10:24:41.982Z,39.75
2022-09-21T10:27:15.982Z,42.25
2022-09-21T10:29:49.888Z,43.25
2022-09-21T10:32:22.785Z,38.00
2022-09-21T10:35:11.823Z,35.25
2022-09-21T10:37:46.284Z,47.25
2022-09-21T10:40:21.690Z,47.25
2022-09-21T10:42:52.699Z,42.25
2022-09-21T10:45:29.087Z,37.25
2022-09-21T10:48:25.187Z,45.75
2022-09-21T10:50:56.295Z,41.50
2022-09-21T10:53:37.052Z,48.50
2022-09-21T10:56:25.826Z,54.25
2022-09-21T10:59:14.975Z,43.00
2022-09-21T11:01:49.840Z,43.50
2022-09-21T11:04:22.549Z,40.25
2022-09-21T11:07:00.108Z,44.75
2022-09-21T11:09:50.898Z,47.75
2022-09-21T11:12:26.565Z,41.00
2022-09-21T11:14:59.419Z,43.00
2022-09-21T11:17:47.839Z,41.50
2022-09-21T11:20:20.527Z,43.75
2022-09-21T11:23:04.881Z,47.50
2022-09-21T11:25:51.975Z,47.00
2022-09-21T11:28:25.368Z,48.00
2022-09-21T11:30:55.057Z,43.00
2022-09-21T11:33:24.545Z,48.00
2022-09-21T11:36:12.253Z,46.00
2022-09-21T11:38:48.549Z,46.00
2022-09-21T11:41:18.058Z,49.75
2022-09-21T11:43:50.332Z,49.75
2022-09-21T11:46:38.267Z,48.50
2022-09-21T11:49:29.536Z,51.25
2022-09-21T11:51:59.536Z,47.25
2022-09-21T11:54:42.679Z,48.50
2022-09-21T11:57:30.735Z,49.00
2022-09-21T12:00:16.630Z,48.00
2022-09-21T12:03:13.873Z,48.75
2022-09-21T12:05:57.765Z,53.00
2022-09-21T12:08:39.354Z,47.00
2022-09-21T12:11:22.343Z,46.50
2022-09-21T12:14:04.408Z,47.25
2022-09-21T12:16:39.014Z,44.50
2022-09-21T12:19:15.738Z,43.50
2022-09-21T12:21:49.434Z,48.50
2022-09-21T12:24:32.205Z,53.25
2022-09-21T12:27:10.694Z,45.00
2022-09-21T12:29:48.984Z,47.00
2022-09-21T12:32:22.089Z,49.00
2022-09-21T12:35:01.055Z,40.50
2022-09-21T12:37:52.392Z,47.50
2022-09-21T12:40:44.250Z,48.75
2022-09-21T12:43:31.901Z,46.75
2022-09-21T12:46:24.108Z,46.50
2022-09-21T12:48:54.466Z,47.25
2022-09-21T12:51:34.241Z,46.50
2022-09-21T12:54:17.162Z,43.75
2022-09-21T12:56:51.210Z,46.75
2022-09-21T12:59:43.871Z,49.25
2022-09-21T13:02:34.947Z,46.75
2022-09-21T13:05:11.259Z,45.75
2022-09-21T13:07:42.513Z,45.00
2022-09-21T13:10:18.456Z,44.25
2022-09-21T13:12:49.956Z,47.50
2022-09-21T13:15:25.077Z,45.50
2022-09-21T13:18:07.269Z,50.50
2022-09-21T13:20:46.979Z,46.00
2022-09-21T13:23:28.783Z,45.00
2022-09-21T13:26:04.330Z,46.25
2022-09-21T13:28:51.962Z,47.75
2022-09-21T13:31:41.138Z,45.50
2022-09-21T13:34:25.537Z,44.75
2022-09-21T13:37:15.661Z,50.00
2022-09-21T13:40:10.206Z,51.00
2022-09-21T13:42:41.497Z,48.75
2022-09-21T13:45:16.948Z,50.00
2022-09-21T13:47:52.283Z,48.50
2022-09-21T13:50:31.827Z,46.25
2022-09-21T13:53:11.001Z,49.00
2022-09-21T13:55:51.161Z,44.50
2022-09-21T13:58:25.237Z,45.50
2022-09-21T14:00:57.266Z,47.50
2022-09-21T14:03:36.180Z,47.00
2022-09-21T14:06:15.665Z,43.50
2022-09-21T14:08:55.786Z,46.25
2022-09-21T14:11:42.393Z,42.00
2022-09-21T14:14:15.359Z,43.75
2022-09-21T14:16:47.067Z,50.00
2022-09-21T14:19:19.849Z,43.00
2022-09-21T14:22:08.946Z,48.75
2022-09-21T14:24:47.466Z,44.00
2022-09-21T14:27:20.926Z,43.75
2022-09-21T14:29:54.568Z,45.00
2022-09-21T14:32:27.020Z,42.75
2022-09-21T14:35:00.699Z,40.75
2022-09-21T14:37:34.505Z,46.25
2022-09-21T14:40:08.695Z,45.50
2022-09-21T14:42:41.667Z,46.75
2022-09-21T14:45:20.897Z,43.00
2022-09-21T14:47:58.967Z,43.00
2022-09-21T14:50:35.381Z,43.25
2022-09-21T14:53:17.724Z,46.50
2022-09-21T14:55:57.340Z,43.50
2022-09-21T14:58:30.354Z,45.00
2022-09-21T15:01:17.597Z,40.25
2022-09-21T15:03:50.435Z,47.25
2022-09-21T15:06:39.005Z,45.00
2022-09-21T15:09:45.384Z,39.75
2022-09-21T15:12:22.744Z,36.25
2022-09-21T15:15:04.823Z,44.75
2022-09-21T15:17:36.068Z,46.75
2022-09-21T15:20:17.457Z,47.50
2022-09-21T15:22:47.707Z,41.25
2022-09-21T15:25:17.795Z,39.25
2022-09-21T15:27:48.851Z,44.00
2022-09-21T15:30:23.235Z,42.00
2022-09-21T15:32:57.483Z,43.00
2022-09-21T15:35:32.025Z,42.50
2022-09-21T15:38:02.857Z,40.50
2022-09-21T15:40:40.967Z,43.50
2022-09-21T15:43:14.926Z,47.50
2022-09-21T15:46:00.035Z,46.00
2022-09-21T15:48:35.829Z,49.00
2022-09-21T15:51:12.059Z,44.50
2022-09-21T15:53:50.839Z,45.25
2022-09-21T15:56:26.223Z,43.75
2022-09-21T15:59:10.420Z,39.75
2022-09-21T16:01:45.555Z,41.00
2022-09-21T16:04:18.881Z,44.25
2022-09-21T16:07:00.218Z,44.25
2022-09-21T16:09:33.861Z,39.75
2022-09-21T16:12:24.694Z,47.50
2022-09-21T16:15:03.199Z,43.50
2022-09-21T16:17:40.599Z,41.75
2022-09-21T16:20:25.097Z,48.25
2022-09-21T16:23:05.764Z,48.50
2022-09-21T16:25:39.641Z,39.25
2022-09-21T16:28:30.831Z,44.75
2022-09-21T16:31:00.802Z,45.75
2022-09-21T16:33:42.299Z,43.75
2022-09-21T16:36:25.126Z,48.00
2022-09-21T16:38:55.408Z,50.25
2022-09-21T16:41:29.268Z,44.25
2022-09-21T16:43:59.509Z,42.75
2022-09-21T16:46:30.112Z,42.75
2022-09-21T16:49:02.151Z,45.00
2022-09-21T16:51:33.052Z,47.75
2022-09-21T16:54:04.354Z,45.75
2022-09-21T16:56:35.412Z,47.00
2022-09-21T16:59:13.137Z,44.00
2022-09-21T17:01:43.039Z,43.75
2022-09-21T17:04:14.734Z,37.50
2022-09-21T17:06:45.268Z,44.25
2022-09-21T17:09:34.644Z,45.00
2022-09-21T17:12:05.942Z,49.00
2022-09-21T17:14:37.056Z,51.25
2022-09-21T17:17:12.822Z,40.00
2022-09-21T17:19:45.176Z,43.75
2022-09-21T17:22:22.474Z,48.00
2022-09-21T17:24:53.644Z,45.75
2022-09-21T17:27:25.074Z,46.00
2022-09-21T17:29:56.486Z,47.00
2022-09-21T17:32:26.578Z,46.25
2022-09-21T17:35:15.956Z,45.25
2022-09-21T17:37:46.026Z,40.75
2022-09-21T17:40:15.856Z,43.25
2022-09-21T17:42:49.886Z,43.50
2022-09-21T17:45:26.519Z,46.00
2022-09-21T17:47:56.379Z,44.75
2022-09-21T17:50:28.333Z,49.00
2022-09-21T17:53:16.602Z,46.75
2022-09-21T17:55:55.667Z,45.50
2022-09-21T17:58:43.165Z,46.75
2022-09-21T18:01:21.470Z,43.25
2022-09-21T18:03:51.301Z,44.25
2022-09-21T18:06:20.847Z,45.25
2022-09-21T18:08:50.417Z,44.25
2022-09-21T18:11:19.933Z,46.25
2022-09-21T18:14:10.095Z,44.00
2022-09-21T18:16:57.674Z,46.50
2022-09-21T18:19:32.193Z,46.50
2022-09-21T18:22:27.465Z,43.50
2022-09-21T18:24:58.956Z,50.25
2022-09-21T18:27:28.408Z,51.00
2022-09-21T18:29:58.347Z,43.75
2022-09-21T18:32:34.122Z,45.00
2022-09-21T18:35:03.704Z,46.25
2022-09-21T18:37:33.433Z,43.75
2022-09-21T18:40:04.076Z,48.75
2022-09-21T18:42:57.145Z,48.25
2022-09-21T18:45:30.491Z,43.75
2022-09-21T18:48:00.624Z,50.75
2022-09-21T18:50:35.737Z,53.75
2022-09-21T18:53:05.097Z,47.75
2022-09-21T18:55:34.712Z,49.25
2022-09-21T18:58:05.340Z,47.50
2022-09-21T19:00:36.425Z,50.50
2022-09-21T19:03:18.312Z,49.00
2022-09-21T19:05:59.798Z,53.75
2022-09-21T19:08:32.276Z,48.00
2022-09-21T19:11:04.574Z,48.00
2022-09-21T19:13:39.734Z,52.25
2022-09-21T19:16:15.225Z,55.00
2022-09-21T19:19:02.993Z,52.00
2022-09-21T19:21:40.166Z,52.25
2022-09-21T19:24:16.016Z,51.75
2022-09-21T19:26:52.259Z,51.75
2022-09-21T19:29:22.389Z,50.50
2022-09-21T19:31:51.804Z,51.25
2022-09-21T19:34:22.806Z,55.00
2022-09-21T19:36:52.564Z,47.00
2022-09-21T19:39:22.167Z,54.25
2022-09-21T19:41:51.436Z,53.75
2022-09-21T19:44:24.588Z,51.75
2022-09-21T19:47:14.438Z,57.25
2022-09-21T19:49:52.172Z,54.25
2022-09-21T19:52:28.637Z,56.25
2022-09-21T19:55:16.385Z,55.75
2022-09-21T19:58:04.068Z,59.50
2022-09-21T20:00:34.131Z,52.25
2022-09-21T20:03:07.008Z,54.00
2022-09-21T20:05:47.089Z,54.75
2022-09-21T20:08:36.754Z,54.25
2022-09-21T20:11:14.327Z,54.75
2022-09-21T20:13:50.066Z,52.00
2022-09-21T20:16:20.020Z,51.75
2022-09-21T20:18:55.463Z,53.00
2022-09-21T20:21:27.148Z,49.00
2022-09-21T20:24:01.213Z,56.25
2022-09-21T20:26:31.487Z,51.25
2022-09-21T20:29:00.985Z,51.00
2022-09-21T20:31:30.543Z,54.75
2022-09-21T20:34:00.007Z,61.25
2022-09-21T20:36:30.820Z,57.00
2022-09-21T20:39:01.236Z,51.50
2022-09-21T20:41:33.007Z,53.25
2022-09-21T20:44:03.321Z,52.00
2022-09-21T20:46:32.905Z,55.00
2022-09-21T20:49:06.148Z,50.75
2022-09-21T20:51:37.154Z,52.75
2022-09-21T20:54:07.442Z,54.00
2022-09-21T20:56:36.841Z,53.25
2022-09-21T20:59:06.265Z,53.25
2022-09-21T21:01:35.606Z,55.50
2022-09-21T21:04:05.130Z,56.00
2022-09-21T21:06:36.271Z,59.00
2022-09-21T21:09:06.417Z,51.25
2022-09-21T21:11:35.994Z,52.50
2022-09-21T21:14:06.138Z,55.00
2022-09-21T21:16:36.230Z,51.75
2022-09-21T21:19:06.023Z,52.75
2022-09-21T21:21:35.811Z,60.25
2022-09-21T21:24:23.479Z,55.00
2022-09-21T21:27:02.338Z,56.50
2022-09-21T21:29:33.429Z,55.25
2022-09-21T21:32:03.360Z,59.50
2022-09-21T21:34:32.847Z,56.25
2022-09-21T21:37:02.388Z,59.25
2022-09-21T21:39:31.811Z,57.00
2022-09-21T21:42:01.453Z,55.50
2022-09-21T21:44:30.934Z,56.50
2022-09-21T21:47:10.355Z,57.00
2022-09-21T21:49:45.451Z,60.50
2022-09-21T21:52:14.847Z,55.00
2022-09-21T21:54:44.391Z,54.50
2022-09-21T21:57:15.301Z,59.25
2022-09-21T21:59:45.117Z,55.75
2022-09-21T22:02:14.835Z,60.75
2022-09-21T22:04:44.244Z,55.25
2022-09-21T22:07:13.796Z,60.75
2022-09-21T22:09:43.273Z,59.75
2022-09-21T22:12:13.513Z,59.00
2022-09-21T22:14:43.091Z,59.75
2022-09-21T22:17:12.594Z,56.25
2022-09-21T22:19:41.905Z,60.75
2022-09-21T22:22:11.425Z,56.75
2022-09-21T22:24:40.881Z,56.75
2022-09-21T22:27:13.664Z,56.50
2022-09-21T22:29:43.202Z,55.75
2022-09-21T22:32:12.534Z,55.50
2022-09-21T22:34:42.064Z,53.25
2022-09-21T22:37:11.425Z,54.75
2022-09-21T22:39:40.781Z,60.00
2022-09-21T22:42:12.634Z,57.00
2022-09-21T22:44:42.109Z,55.75
2022-09-21T22:47:11.577Z,59.25
2022-09-21T22:49:40.914Z,61.50
2022-09-21T22:52:10.474Z,59.00
2022-09-21T22:54:39.997Z,56.25
2022-09-21T22:57:09.417Z,55.75
2022-09-21T22:59:39.029Z,52.00
2022-09-21T23:02:11.316Z,55.75
2022-09-21T23:04:40.709Z,60.00
2022-09-21T23:07:10.288Z,62.50
2022-09-21T23:09:39.777Z,62.25
2022-09-21T23:12:09.199Z,61.00
2022-09-21T23:14:38.617Z,61.75
2022-09-21T23:17:08.674Z,64.25
2022-09-21T23:19:38.054Z,63.00
2022-09-21T23:22:07.900Z,61.75
2022-09-21T23:24:37.393Z,67.25
2022-09-21T23:27:07.683Z,61.00
2022-09-21T23:29:37.659Z,66.75
2022-09-21T23:32:07.800Z,68.25
2022-09-21T23:34:37.334Z,68.50
2022-09-21T23:37:07.255Z,65.75
2022-09-21T23:39:36.784Z,66.00
2022-09-21T23:42:06.350Z,68.50
2022-09-21T23:44:35.837Z,70.25
2022-09-21T23:47:05.311Z,69.25
2022-09-21T23:49:34.729Z,65.75
2022-09-21T23:52:04.193Z,63.50
2022-09-21T23:54:33.503Z,70.50
2022-09-21T23:57:02.864Z,71.50
2022-09-21T23:59:32.322Z,67.75
